Time;durP1;ratioP1;P1;durP2;ratioP2;P2;SDS_P1;SDS_P2;PMS_P1;PMS_P2;Temp;Humidity;BMP_temperature;BMP_pressure;BME280_temperature;BME280_humidity;BME280_pressure;Samples;Min_cycle;Max_cycle;Signal;HPM_P1;HPM_P2
2021/12/17 00:00:16;;;;;;;31.53;28.53;;;5.00;99.90;;;;;;4992243;28;20525;-78
2021/12/17 00:08:28;;;;;;;34.10;30.70;;;4.90;99.90;;;;;;4972602;28;20486;-76
2021/12/17 00:10:54;;;;;;;34.37;28.27;;;4.90;99.90;;;;;;4972365;28;20458;-76
2021/12/17 00:13:21;;;;;;;32.70;29.40;;;4.80;99.90;;;;;;4972619;28;20869;-77
2021/12/17 00:15:49;;;;;;;32.47;29.13;;;4.90;99.90;;;;;;4972316;28;20461;-79
2021/12/17 00:18:22;;;;;;;33.17;28.67;;;5.10;99.90;;;;;;4972613;28;20449;-79
2021/12/17 00:40:13;;;;;;;31.27;27.27;;;5.10;99.90;;;;;;4972614;28;20885;-78
2021/12/17 00:43:49;;;;;;;29.20;25.10;;;5.70;99.90;;;;;;4972224;28;20420;-84
2021/12/17 00:48:43;;;;;;;31.00;27.47;;;5.50;99.90;;;;;;4972243;28;20431;-83
2021/12/17 00:51:52;;;;;;;30.20;27.40;;;5.60;99.90;;;;;;4972106;28;20520;-81
2021/12/17 00:54:29;;;;;;;36.30;28.10;;;5.80;99.90;;;;;;4971857;28;20445;-78
2021/12/17 00:56:58;;;;;;;29.07;26.00;;;5.70;99.90;;;;;;4971567;28;20476;-78
2021/12/17 00:59:25;;;;;;;31.27;28.13;;;5.80;99.90;;;;;;4971342;28;20451;-79
2021/12/17 01:01:54;;;;;;;29.47;26.80;;;5.90;99.90;;;;;;4971807;28;20455;-79
2021/12/17 01:04:22;;;;;;;34.33;28.77;;;6.00;99.90;;;;;;4971424;28;20558;-79
2021/12/17 01:06:49;;;;;;;32.03;28.67;;;5.80;99.90;;;;;;4971448;28;20972;-79
2021/12/17 01:09:18;;;;;;;29.67;26.63;;;5.60;99.90;;;;;;4971639;28;20509;-79
2021/12/17 01:11:45;;;;;;;30.53;27.43;;;5.60;99.90;;;;;;4971554;28;20456;-79
2021/12/17 01:14:12;;;;;;;30.80;27.67;;;5.60;99.90;;;;;;4971792;28;20473;-81
2021/12/17 01:16:42;;;;;;;28.73;25.23;;;5.60;99.90;;;;;;4971633;28;21047;-82
2021/12/17 01:19:17;;;;;;;30.27;26.30;;;5.50;99.90;;;;;;4971430;28;20460;-83
2021/12/17 01:22:01;;;;;;;31.27;27.57;;;5.50;99.90;;;;;;4971552;28;20463;-82
2021/12/17 01:24:41;;;;;;;29.03;25.97;;;5.50;99.90;;;;;;4971817;28;20844;-83
2021/12/17 01:35:22;;;;;;;27.17;24.57;;;6.00;99.90;;;;;;4971195;28;20565;-84
2021/12/17 01:43:31;;;;;;;28.53;25.80;;;6.10;99.90;;;;;;4971529;28;20486;-83
2021/12/17 01:45:59;;;;;;;28.23;25.30;;;6.20;99.90;;;;;;4971284;28;20491;-86
2021/12/17 01:48:36;;;;;;;27.63;24.73;;;6.20;99.90;;;;;;4971164;28;20466;-84
2021/12/17 01:56:53;;;;;;;32.83;27.37;;;6.10;99.90;;;;;;4974934;28;20441;-82
2021/12/17 01:59:23;;;;;;;30.63;25.53;;;6.10;99.90;;;;;;4974737;28;20810;-84
2021/12/17 02:01:53;;;;;;;29.03;25.90;;;6.00;99.90;;;;;;4990962;28;20491;-85
2021/12/17 02:04:20;;;;;;;30.00;26.57;;;6.20;99.90;;;;;;4999972;28;20472;-80
2021/12/17 02:06:46;;;;;;;29.33;26.23;;;6.30;99.90;;;;;;5000187;28;20682;-80
2021/12/17 02:09:52;;;;;;;29.33;26.50;;;6.30;99.90;;;;;;4988015;28;20477;-81
2021/12/17 02:12:29;;;;;;;30.70;27.40;;;6.30;99.90;;;;;;4993544;28;20514;-81
2021/12/17 02:29:01;;;;;;;27.57;24.97;;;6.40;99.90;;;;;;4975208;28;20777;-84
2021/12/17 02:31:31;;;;;;;30.07;24.97;;;6.40;99.90;;;;;;4975103;28;20473;-85
2021/12/17 02:34:02;;;;;;;27.57;24.57;;;6.50;99.90;;;;;;4974772;28;20552;-86
2021/12/17 02:36:33;;;;;;;28.40;25.67;;;6.40;99.90;;;;;;4974000;28;20460;-85
2021/12/17 02:39:20;;;;;;;26.60;24.33;;;6.40;99.90;;;;;;4973913;28;20453;-85
2021/12/17 02:47:21;;;;;;;29.03;26.33;;;6.40;99.90;;;;;;4963190;28;21074;-85
2021/12/17 02:49:49;;;;;;;31.07;28.17;;;6.40;99.90;;;;;;4973627;28;20454;-86
2021/12/17 02:52:17;;;;;;;28.67;25.63;;;6.30;99.90;;;;;;4973844;28;20454;-84
2021/12/17 02:54:45;;;;;;;29.87;26.83;;;6.40;99.90;;;;;;4973786;28;20447;-85
2021/12/17 02:57:13;;;;;;;27.33;24.80;;;6.30;99.90;;;;;;4973983;28;20940;-83
2021/12/17 02:59:40;;;;;;;29.90;26.53;;;6.30;99.90;;;;;;4973805;28;20460;-81
2021/12/17 03:02:09;;;;;;;28.93;26.03;;;6.40;99.90;;;;;;4974085;28;20460;-77
2021/12/17 03:04:41;;;;;;;29.07;26.27;;;6.30;99.90;;;;;;4973576;28;20571;-79
2021/12/17 03:07:11;;;;;;;29.03;26.07;;;6.30;99.90;;;;;;4973050;28;20453;-79
2021/12/17 03:09:57;;;;;;;28.80;26.13;;;6.30;99.90;;;;;;4973484;28;20451;-80
2021/12/17 03:12:30;;;;;;;28.43;25.20;;;6.40;99.90;;;;;;4973459;28;20455;-80
2021/12/17 03:15:03;;;;;;;29.13;26.10;;;6.50;99.90;;;;;;4973429;28;20457;-81
2021/12/17 03:17:53;;;;;;;28.40;25.70;;;6.40;99.90;;;;;;4973137;28;20460;-81
2021/12/17 03:25:48;;;;;;;29.27;26.73;;;6.40;99.90;;;;;;4973075;28;20479;-79
2021/12/17 03:28:14;;;;;;;27.43;24.97;;;6.50;99.90;;;;;;4972918;28;20456;-80
2021/12/17 03:30:41;;;;;;;28.67;26.00;;;6.50;99.90;;;;;;4972470;28;20901;-79
2021/12/17 03:33:08;;;;;;;27.50;24.83;;;6.50;99.90;;;;;;4973078;28;20464;-78
2021/12/17 03:35:35;;;;;;;28.03;25.43;;;6.60;99.90;;;;;;4972801;28;20649;-79
2021/12/17 03:38:02;;;;;;;27.13;24.53;;;6.70;99.90;;;;;;4973092;28;20509;-80
2021/12/17 03:40:31;;;;;;;25.70;23.70;;;6.70;99.90;;;;;;4972643;28;20817;-79
2021/12/17 03:43:02;;;;;;;28.53;25.83;;;6.70;99.90;;;;;;4972948;28;20462;-79
2021/12/17 03:45:29;;;;;;;28.27;25.70;;;6.70;99.90;;;;;;4972499;28;20495;-79
2021/12/17 03:47:56;;;;;;;25.30;22.97;;;6.70;99.90;;;;;;4972747;28;20531;-78
2021/12/17 03:50:23;;;;;;;27.50;25.20;;;6.60;99.90;;;;;;4972639;28;20462;-78
2021/12/17 03:52:51;;;;;;;26.13;23.63;;;6.70;99.90;;;;;;4972642;28;20451;-78
2021/12/17 03:55:18;;;;;;;25.90;23.57;;;6.70;99.90;;;;;;4972724;28;20455;-78
2021/12/17 03:57:44;;;;;;;27.80;25.10;;;6.80;99.90;;;;;;4972471;28;20460;-78
2021/12/17 04:00:14;;;;;;;25.20;23.00;;;6.80;99.90;;;;;;4972482;28;20458;-78
2021/12/17 04:02:40;;;;;;;25.10;22.97;;;6.80;99.90;;;;;;4972466;28;20509;-77
2021/12/17 04:05:07;;;;;;;27.30;24.73;;;6.80;99.90;;;;;;4972394;28;20508;-77
2021/12/17 04:07:34;;;;;;;26.30;24.00;;;6.70;99.90;;;;;;4972239;28;20458;-78
2021/12/17 04:10:01;;;;;;;27.83;25.13;;;6.80;99.90;;;;;;4972134;28;20460;-77
2021/12/17 04:12:40;;;;;;;26.13;24.03;;;6.90;99.90;;;;;;4972065;28;20946;-78
2021/12/17 04:15:08;;;;;;;26.40;23.93;;;6.90;99.90;;;;;;4972239;28;20452;-78
2021/12/17 04:17:42;;;;;;;26.93;24.73;;;6.90;99.90;;;;;;4972102;28;20459;-78
2021/12/17 04:20:10;;;;;;;29.00;26.57;;;6.80;99.90;;;;;;4972012;28;20471;-79
2021/12/17 04:22:37;;;;;;;27.37;25.00;;;6.60;99.90;;;;;;4971988;28;20896;-78
2021/12/17 04:25:04;;;;;;;27.20;24.80;;;6.60;99.90;;;;;;4972101;28;20532;-79
2021/12/17 04:27:30;;;;;;;27.90;25.27;;;6.60;99.90;;;;;;4972218;28;20477;-78
2021/12/17 04:29:58;;;;;;;28.87;26.37;;;6.60;99.90;;;;;;4971906;28;20826;-79
2021/12/17 04:32:24;;;;;;;28.20;25.37;;;6.70;99.90;;;;;;4972409;28;20461;-82
2021/12/17 04:34:53;;;;;;;26.13;23.90;;;6.60;99.90;;;;;;4971911;28;20473;-81
2021/12/17 04:37:20;;;;;;;27.10;24.80;;;6.80;99.90;;;;;;4972111;28;20457;-79
2021/12/17 04:39:47;;;;;;;28.80;25.83;;;6.80;99.90;;;;;;4971521;28;20453;-79
2021/12/17 04:42:19;;;;;;;27.03;24.53;;;6.70;99.90;;;;;;4971836;28;20997;-78
2021/12/17 04:44:52;;;;;;;27.03;24.63;;;6.80;99.90;;;;;;4971723;28;20549;-77
2021/12/17 04:58:18;;;;;;;29.60;26.90;;;6.40;99.90;;;;;;4954660;28;20449;-76
2021/12/17 05:00:45;;;;;;;28.80;25.93;;;6.40;99.90;;;;;;4971465;28;20448;-76
2021/12/17 05:03:12;;;;;;;29.33;26.50;;;6.50;99.90;;;;;;4971584;28;20464;-75
2021/12/17 05:05:40;;;;;;;28.50;26.10;;;6.50;99.90;;;;;;4971397;28;20519;-75
2021/12/17 05:08:12;;;;;;;26.07;23.77;;;6.60;99.90;;;;;;4971823;28;20462;-75
2021/12/17 05:11:01;;;;;;;28.87;26.47;;;6.70;99.90;;;;;;4971685;28;21205;-76
2021/12/17 05:19:03;;;;;;;27.10;24.80;;;6.70;99.90;;;;;;4971636;28;20427;-76
2021/12/17 05:21:31;;;;;;;27.00;24.50;;;6.80;99.90;;;;;;4971741;28;20492;-74
2021/12/17 05:23:58;;;;;;;31.17;28.10;;;6.70;99.90;;;;;;4970992;28;20487;-76
2021/12/17 05:26:25;;;;;;;31.27;28.30;;;6.70;99.90;;;;;;4971257;28;20469;-73
2021/12/17 05:28:53;;;;;;;27.60;25.30;;;6.90;99.90;;;;;;4971501;28;20446;-78
2021/12/17 05:31:21;;;;;;;29.47;26.67;;;6.90;99.90;;;;;;4974704;28;20465;-79
2021/12/17 05:33:48;;;;;;;30.80;28.00;;;6.60;99.90;;;;;;4975156;28;20456;-78
2021/12/17 05:36:15;;;;;;;29.20;26.70;;;6.70;99.90;;;;;;4975128;28;20477;-79
2021/12/17 05:38:43;;;;;;;29.83;27.33;;;6.80;99.90;;;;;;4975358;28;20955;-81
2021/12/17 05:41:10;;;;;;;33.10;26.33;;;7.00;99.90;;;;;;4975009;28;20949;-81
2021/12/17 05:43:38;;;;;;;34.50;28.80;;;7.00;99.90;;;;;;4974826;28;20519;-81
2021/12/17 05:46:10;;;;;;;29.00;26.03;;;7.00;99.90;;;;;;4974651;28;20500;-81
2021/12/17 05:48:38;;;;;;;30.23;27.50;;;7.00;99.90;;;;;;4975136;28;20451;-80
2021/12/17 05:51:10;;;;;;;31.67;28.70;;;7.10;99.90;;;;;;4975160;28;20447;-79
2021/12/17 05:53:36;;;;;;;30.27;27.57;;;7.20;99.90;;;;;;4974910;28;20452;-81
2021/12/17 05:56:05;;;;;;;29.43;26.63;;;7.10;99.90;;;;;;4974859;28;20505;-79
2021/12/17 05:58:32;;;;;;;28.13;25.50;;;7.00;99.90;;;;;;4975352;28;20450;-79
2021/12/17 06:00:59;;;;;;;28.10;25.27;;;7.00;99.90;;;;;;4975006;28;20859;-83
2021/12/17 06:03:26;;;;;;;30.37;27.53;;;6.90;99.90;;;;;;4974804;28;20458;-82
2021/12/17 06:05:52;;;;;;;29.33;26.70;;;7.00;99.90;;;;;;4974945;28;20488;-84
2021/12/17 06:08:19;;;;;;;29.93;26.93;;;6.90;99.90;;;;;;4974479;28;20450;-81
2021/12/17 06:10:46;;;;;;;27.90;25.30;;;6.80;99.90;;;;;;4974611;28;20459;-79
2021/12/17 06:13:14;;;;;;;29.10;26.23;;;6.80;99.90;;;;;;4974764;28;20457;-79
2021/12/17 06:15:41;;;;;;;30.83;27.90;;;6.90;99.90;;;;;;4974323;28;20454;-79
2021/12/17 06:18:08;;;;;;;30.00;27.30;;;6.80;99.90;;;;;;4974651;28;20455;-81
2021/12/17 06:20:34;;;;;;;29.20;26.40;;;6.80;99.90;;;;;;4974588;28;20461;-81
2021/12/17 06:23:01;;;;;;;30.60;27.70;;;6.80;99.90;;;;;;4974229;28;20481;-80
2021/12/17 06:25:28;;;;;;;29.03;26.30;;;6.90;99.90;;;;;;4974776;28;20497;-80
2021/12/17 06:27:55;;;;;;;30.97;28.10;;;6.90;99.90;;;;;;4974472;28;20949;-81
2021/12/17 06:30:24;;;;;;;27.70;24.87;;;7.00;99.90;;;;;;4983952;28;20459;-80
2021/12/17 06:32:51;;;;;;;16.90;15.70;;;6.90;99.90;;;;;;4999228;28;20470;-80
2021/12/17 06:35:18;;;;;;;15.63;14.60;;;6.90;99.90;;;;;;4999434;28;20478;-80
2021/12/17 06:37:45;;;;;;;17.33;16.27;;;7.20;99.90;;;;;;4999331;28;20439;-82
2021/12/17 06:40:14;;;;;;;17.70;16.50;;;7.10;99.90;;;;;;4995602;28;20463;-81
2021/12/17 06:42:41;;;;;;;16.87;15.67;;;7.10;99.90;;;;;;4995639;28;20459;-81
2021/12/17 06:45:18;;;;;;;15.90;14.87;;;7.20;99.90;;;;;;4983548;28;20541;-82
2021/12/17 06:47:54;;;;;;;14.40;13.50;;;7.30;99.90;;;;;;4976917;28;20546;-81
2021/12/17 06:56:29;;;;;;;15.97;14.93;;;7.30;99.90;;;;;;4984091;28;20419;-81
2021/12/17 06:58:57;;;;;;;15.53;14.53;;;7.20;99.90;;;;;;4983311;28;20435;-81
2021/12/17 07:08:03;;;;;;;15.40;14.50;;;7.10;99.90;;;;;;4943243;28;20973;-82
2021/12/17 07:10:17;;;;;;;15.97;14.97;;;7.20;99.90;;;;;;4941966;29;20433;-81
2021/12/17 07:21:24;;;;;;;16.47;15.37;;;7.10;99.90;;;;;;4973933;28;20430;-81
2021/12/17 07:24:35;;;;;;;17.13;15.90;;;7.00;99.90;;;;;;4983541;28;20475;-81
2021/12/17 07:32:43;;;;;;;16.53;15.30;;;6.60;99.90;;;;;;4982625;28;20470;-83
2021/12/17 07:40:42;;;;;;;17.37;16.13;;;6.40;99.90;;;;;;4980457;28;20971;-84
2021/12/17 07:43:13;;;;;;;16.50;15.30;;;6.50;99.90;;;;;;4983707;28;20449;-83
2021/12/17 07:45:40;;;;;;;17.33;16.13;;;6.40;99.90;;;;;;4980780;28;21081;-82
2021/12/17 07:48:07;;;;;;;16.30;15.30;;;6.40;99.90;;;;;;4975030;28;20450;-82
2021/12/17 07:50:35;;;;;;;17.20;15.90;;;6.40;99.90;;;;;;4972676;28;20530;-84
2021/12/17 07:53:03;;;;;;;18.93;17.57;;;6.40;99.90;;;;;;4972469;28;20456;-82
2021/12/17 07:55:30;;;;;;;19.03;17.80;;;6.50;99.90;;;;;;4972416;28;20486;-77
2021/12/17 07:57:57;;;;;;;17.30;16.20;;;6.70;99.90;;;;;;4972032;28;20454;-79
2021/12/17 08:00:24;;;;;;;16.97;15.77;;;7.10;99.90;;;;;;4972410;28;20459;-77
2021/12/17 08:02:50;;;;;;;15.93;14.83;;;7.80;99.90;;;;;;4975377;28;20448;-77
2021/12/17 08:05:17;;;;;;;15.30;14.43;;;8.80;99.90;;;;;;4981901;28;20461;-77
2021/12/17 08:07:45;;;;;;;15.60;14.60;;;9.30;99.90;;;;;;4982555;28;20448;-78
2021/12/17 08:10:13;;;;;;;15.00;14.10;;;10.00;99.90;;;;;;4978297;28;20441;-79
2021/12/17 08:12:40;;;;;;;15.03;14.10;;;10.50;99.90;;;;;;4983611;28;20459;-81
2021/12/17 08:15:10;;;;;;;16.13;14.80;;;10.60;99.90;;;;;;4983501;28;20443;-80
2021/12/17 08:18:09;;;;;;;15.93;14.97;;;11.10;99.90;;;;;;4981445;28;20538;-80
2021/12/17 08:26:16;;;;;;;14.80;13.97;;;14.00;99.90;;;;;;4953884;28;20492;-82
2021/12/17 08:28:56;;;;;;;15.13;14.23;;;14.90;98.50;;;;;;4953024;29;20440;-78
2021/12/17 08:31:23;;;;;;;16.97;15.87;;;15.60;96.20;;;;;;4953347;28;20943;-78
2021/12/17 08:33:49;;;;;;;14.70;13.80;;;15.20;95.80;;;;;;4957086;28;20453;-87
2021/12/17 08:36:16;;;;;;;15.90;14.90;;;14.90;96.20;;;;;;4961040;28;20485;-87
2021/12/17 08:38:43;;;;;;;15.27;14.27;;;15.10;96.10;;;;;;4957977;28;20514;-88
2021/12/17 08:41:11;;;;;;;16.27;15.27;;;15.00;94.80;;;;;;4955733;28;20991;-87
2021/12/17 08:43:38;;;;;;;13.80;13.10;;;14.40;95.70;;;;;;4959707;28;20457;-86
2021/12/17 08:46:05;;;;;;;15.83;14.87;;;14.60;95.70;;;;;;4969284;29;20551;-87
2021/12/17 08:48:33;;;;;;;13.80;13.20;;;15.10;94.70;;;;;;4973437;29;20448;-86
2021/12/17 08:51:02;;;;;;;15.03;14.27;;;15.00;94.10;;;;;;4963016;28;20488;-87
2021/12/17 08:53:29;;;;;;;14.03;13.10;;;14.60;94.40;;;;;;4967037;29;20452;-88
2021/12/17 08:55:55;;;;;;;15.30;14.40;;;13.90;95.40;;;;;;4953994;28;20947;-87
2021/12/17 08:58:23;;;;;;;14.97;14.13;;;13.20;96.70;;;;;;4966703;28;20448;-87
2021/12/17 09:00:50;;;;;;;15.23;14.40;;;13.10;97.20;;;;;;4953433;28;20456;-85
2021/12/17 09:03:17;;;;;;;14.07;13.37;;;13.20;96.90;;;;;;4954028;29;20460;-84
2021/12/17 09:05:45;;;;;;;15.30;14.40;;;13.00;97.40;;;;;;4955119;28;20554;-82
2021/12/17 09:08:13;;;;;;;15.50;14.70;;;13.30;97.30;;;;;;4964987;28;20468;-86
2021/12/17 09:10:43;;;;;;;14.70;14.00;;;13.30;96.60;;;;;;4979853;28;20551;-87
2021/12/17 09:13:10;;;;;;;15.43;14.73;;;12.90;97.40;;;;;;4977815;28;20508;-88
2021/12/17 09:15:53;;;;;;;16.00;15.10;;;12.20;98.60;;;;;;5054731;23;20475;-87
2021/12/17 09:18:20;;;;;;;16.20;15.07;;;12.20;99.10;;;;;;5006082;28;20462;-86
2021/12/17 09:20:49;;;;;;;15.77;14.77;;;12.20;98.80;;;;;;5007971;28;20437;-89
2021/12/17 09:23:16;;;;;;;14.73;13.93;;;12.10;99.60;;;;;;5004933;28;20488;-88
2021/12/17 09:26:16;;;;;;;16.20;15.10;;;12.30;98.70;;;;;;4989678;28;20483;-89
2021/12/17 09:28:47;;;;;;;13.93;13.10;;;12.10;98.90;;;;;;4992834;28;20450;-88
2021/12/17 09:31:15;;;;;;;13.47;12.87;;;12.50;99.60;;;;;;4981179;28;20961;-87
2021/12/17 09:33:49;;;;;;;15.30;14.50;;;13.00;98.20;;;;;;4987368;28;20452;-87
2021/12/17 09:36:17;;;;;;;15.03;14.23;;;13.10;97.80;;;;;;4984470;28;20451;-87
2021/12/17 09:38:46;;;;;;;15.07;14.27;;;13.80;96.90;;;;;;4977039;28;20445;-86
2021/12/17 09:41:13;;;;;;;16.87;15.60;;;14.50;95.70;;;;;;4980888;28;20471;-88
2021/12/17 09:43:40;;;;;;;16.10;15.20;;;14.50;95.20;;;;;;4981678;28;20502;-87
2021/12/17 09:46:07;;;;;;;16.03;15.20;;;15.60;94.00;;;;;;4980779;28;20482;-86
2021/12/17 09:48:36;;;;;;;16.30;15.43;;;16.40;92.90;;;;;;4975777;28;20866;-86
2021/12/17 09:51:05;;;;;;;16.17;15.17;;;16.80;91.10;;;;;;4977038;28;20456;-87
2021/12/17 09:53:31;;;;;;;16.27;15.37;;;16.60;91.50;;;;;;4975913;28;20447;-86
2021/12/17 09:55:59;;;;;;;16.73;15.73;;;17.20;90.90;;;;;;4975010;28;20451;-86
2021/12/17 09:58:26;;;;;;;16.93;15.73;;;17.70;88.50;;;;;;4975705;28;20899;-87
2021/12/17 10:00:53;;;;;;;16.57;15.67;;;17.00;89.10;;;;;;4991370;28;20446;-86
2021/12/17 10:03:20;;;;;;;16.57;15.47;;;16.80;89.30;;;;;;4980283;28;20460;-86
2021/12/17 10:05:48;;;;;;;16.80;16.00;;;17.40;89.40;;;;;;4990008;28;20863;-87
2021/12/17 10:08:19;;;;;;;17.43;16.40;;;18.10;86.20;;;;;;4983327;28;20483;-87
2021/12/17 10:10:48;;;;;;;17.80;16.50;;;18.80;85.40;;;;;;4981203;28;20451;-86
2021/12/17 10:13:19;;;;;;;16.80;15.70;;;18.10;84.10;;;;;;4980432;28;20475;-86
2021/12/17 10:15:48;;;;;;;16.10;15.00;;;18.10;84.40;;;;;;4980075;28;20490;-86
2021/12/17 10:18:15;;;;;;;17.30;16.30;;;18.30;83.70;;;;;;4975027;28;20455;-85
2021/12/17 10:20:53;;;;;;;16.37;15.47;;;19.30;81.70;;;;;;4976580;28;20448;-87
2021/12/17 10:23:23;;;;;;;16.70;15.80;;;19.70;79.40;;;;;;4981759;28;20521;-87
2021/12/17 10:25:50;;;;;;;17.60;16.40;;;20.30;78.00;;;;;;4976648;28;20452;-86
2021/12/17 10:28:18;;;;;;;17.40;16.40;;;19.20;78.00;;;;;;4974584;28;20498;-83
2021/12/17 10:30:47;;;;;;;15.27;14.47;;;19.00;79.00;;;;;;4974558;28;20459;-84
2021/12/17 10:33:20;;;;;;;14.93;14.23;;;19.40;79.20;;;;;;4975045;28;20550;-84
2021/12/17 10:35:50;;;;;;;16.60;15.80;;;19.70;76.10;;;;;;4974694;28;20456;-85
2021/12/17 10:38:22;;;;;;;16.60;15.80;;;18.90;77.40;;;;;;4972488;28;20819;-85
2021/12/17 10:40:57;;;;;;;17.20;16.20;;;19.70;77.70;;;;;;4974265;28;20460;-85
2021/12/17 10:43:28;;;;;;;16.30;15.40;;;19.40;76.80;;;;;;4974142;28;20950;-85
2021/12/17 10:46:03;;;;;;;18.07;17.00;;;18.10;78.20;;;;;;4974951;28;20961;-84
2021/12/17 10:48:37;;;;;;;18.10;16.90;;;16.30;83.70;;;;;;4977193;28;20522;-84
2021/12/17 10:51:22;;;;;;;16.67;15.77;;;15.70;87.90;;;;;;4975207;28;20517;-84
2021/12/17 10:53:54;;;;;;;18.03;17.00;;;16.10;87.30;;;;;;4976505;28;20864;-81
2021/12/17 10:56:23;;;;;;;18.27;17.17;;;15.80;87.50;;;;;;4974239;28;20447;-82
2021/12/17 10:58:54;;;;;;;18.00;16.90;;;15.10;89.20;;;;;;4974408;28;20483;-83
2021/12/17 11:01:31;;;;;;;16.63;15.73;;;14.40;90.90;;;;;;4973962;28;20451;-82
2021/12/17 11:04:06;;;;;;;17.33;16.33;;;14.00;92.30;;;;;;4973807;28;20459;-83
2021/12/17 11:06:44;;;;;;;17.90;16.80;;;14.40;92.50;;;;;;4974399;28;20466;-82
2021/12/17 11:09:10;;;;;;;17.10;16.20;;;14.40;91.50;;;;;;4974591;28;20455;-82
2021/12/17 11:11:42;;;;;;;17.00;16.10;;;15.10;91.50;;;;;;4978798;28;20451;-82
2021/12/17 11:14:09;;;;;;;18.17;17.10;;;15.20;91.40;;;;;;4997123;28;20446;-80
2021/12/17 11:16:39;;;;;;;18.03;16.67;;;14.80;91.80;;;;;;4999370;28;20458;-82
2021/12/17 11:19:07;;;;;;;16.40;15.37;;;15.10;92.30;;;;;;4999118;28;20479;-81
2021/12/17 11:21:34;;;;;;;17.63;16.47;;;15.50;91.00;;;;;;4994356;28;20455;-80
2021/12/17 11:24:01;;;;;;;17.13;15.93;;;15.30;90.60;;;;;;4994757;28;20455;-82
2021/12/17 11:26:29;;;;;;;17.57;16.57;;;14.50;92.30;;;;;;4995555;28;20483;-82
2021/12/17 11:29:02;;;;;;;18.40;17.10;;;14.60;92.80;;;;;;4976387;28;21039;-83
2021/12/17 11:31:31;;;;;;;16.80;15.70;;;15.30;92.00;;;;;;4974710;28;20554;-82
2021/12/17 11:33:58;;;;;;;17.07;16.07;;;15.50;91.00;;;;;;4973610;28;20463;-81
2021/12/17 11:36:25;;;;;;;17.87;16.77;;;16.30;89.40;;;;;;4973507;28;20456;-80
2021/12/17 11:39:02;;;;;;;17.07;16.03;;;15.80;89.50;;;;;;4973423;28;20455;-83
2021/12/17 11:41:41;;;;;;;17.37;16.37;;;16.00;90.80;;;;;;4973394;28;20463;-82
2021/12/17 11:44:12;;;;;;;17.20;16.20;;;16.80;88.80;;;;;;4973392;28;21179;-81
2021/12/17 11:46:39;;;;;;;17.80;16.60;;;16.80;87.10;;;;;;4972904;28;20540;-81
2021/12/17 11:49:07;;;;;;;18.43;17.23;;;16.10;89.00;;;;;;4973298;28;20484;-82
2021/12/17 11:51:36;;;;;;;17.90;16.70;;;16.30;88.30;;;;;;4973654;28;20483;-81
2021/12/17 11:54:07;;;;;;;16.47;15.50;;;16.30;88.90;;;;;;4971952;28;20460;-81
2021/12/17 11:56:39;;;;;;;18.30;17.20;;;16.90;87.40;;;;;;4972636;28;20456;-81
2021/12/17 11:59:07;;;;;;;18.63;17.43;;;16.60;86.60;;;;;;4972862;28;20799;-82
2021/12/17 12:02:00;;;;;;;17.33;16.33;;;16.40;87.90;;;;;;4972608;28;20511;-81
2021/12/17 12:04:50;;;;;;;19.57;18.40;;;17.10;86.60;;;;;;4972495;28;20483;-80
2021/12/17 12:07:19;;;;;;;19.33;17.93;;;16.90;86.80;;;;;;4972159;28;20491;-81
2021/12/17 12:09:55;;;;;;;18.37;16.60;;;16.90;86.50;;;;;;4972435;28;20463;-80
2021/12/17 12:12:22;;;;;;;18.10;16.87;;;16.10;88.30;;;;;;4972377;28;20705;-81
2021/12/17 12:14:48;;;;;;;17.17;16.07;;;16.00;88.70;;;;;;4972278;28;20483;-82
2021/12/17 12:18:02;;;;;;;16.77;15.80;;;16.00;88.90;;;;;;4972100;28;21021;-80
2021/12/17 12:20:55;;;;;;;16.90;16.00;;;15.70;89.70;;;;;;4962401;28;20463;-80
2021/12/17 12:23:24;;;;;;;16.43;15.53;;;16.50;89.60;;;;;;4965653;28;20487;-80
2021/12/17 12:26:26;;;;;;;16.33;15.43;;;17.10;86.20;;;;;;4972305;28;20455;-82
2021/12/17 12:29:05;;;;;;;16.73;15.63;;;15.60;88.40;;;;;;4968712;28;20552;-84
2021/12/17 12:32:01;;;;;;;15.77;14.73;;;14.60;91.90;;;;;;4972454;28;20978;-83
2021/12/17 12:34:42;;;;;;;17.50;16.30;;;14.00;92.60;;;;;;4972463;28;20543;-84
2021/12/17 12:37:27;;;;;;;15.63;14.70;;;13.40;93.70;;;;;;4970134;28;20740;-81
2021/12/17 12:40:21;;;;;;;15.17;14.17;;;12.20;96.70;;;;;;4971545;28;20454;-83
2021/12/17 12:42:56;;;;;;;17.03;15.70;;;11.70;98.70;;;;;;4972272;28;20832;-83
2021/12/17 12:45:24;;;;;;;16.00;15.00;;;10.90;99.90;;;;;;4971981;28;20451;-82
2021/12/17 12:47:57;;;;;;;17.67;16.00;;;10.60;99.90;;;;;;4971855;28;20511;-83
2021/12/17 12:50:27;;;;;;;17.70;16.60;;;10.30;99.90;;;;;;4972404;28;20927;-83
2021/12/17 12:52:56;;;;;;;16.97;15.87;;;10.10;99.90;;;;;;4972554;28;20529;-84
2021/12/17 12:55:27;;;;;;;16.37;15.30;;;9.90;99.90;;;;;;4979256;28;20521;-84
2021/12/17 12:57:55;;;;;;;16.77;15.63;;;9.80;99.90;;;;;;4980789;28;20462;-86
2021/12/17 13:00:25;;;;;;;17.03;15.90;;;9.80;99.90;;;;;;4974294;28;20710;-86
2021/12/17 13:02:54;;;;;;;16.17;15.07;;;9.60;99.90;;;;;;4982717;28;20450;-85
2021/12/17 13:05:22;;;;;;;17.20;15.67;;;9.60;99.90;;;;;;4993275;28;20479;-86
2021/12/17 13:07:51;;;;;;;16.90;15.90;;;9.60;99.90;;;;;;4991957;28;20487;-87
2021/12/17 13:10:21;;;;;;;16.83;15.70;;;9.60;99.90;;;;;;4983875;28;20455;-86
2021/12/17 13:12:55;;;;;;;16.03;15.10;;;9.60;99.90;;;;;;4988881;28;20439;-87
2021/12/17 13:21:21;;;;;;;16.90;15.60;;;9.70;99.90;;;;;;4953693;29;20494;-88
2021/12/17 13:23:54;;;;;;;17.83;16.57;;;9.80;99.90;;;;;;4972365;28;20479;-87
2021/12/17 13:26:24;;;;;;;16.77;15.67;;;9.90;99.90;;;;;;4971887;28;20489;-87
2021/12/17 13:28:56;;;;;;;16.87;15.77;;;9.90;99.90;;;;;;4992492;28;20494;-89
2021/12/17 13:31:48;;;;;;;17.07;15.87;;;9.90;99.90;;;;;;5000468;28;20450;-87
2021/12/17 13:34:27;;;;;;;18.17;17.00;;;9.80;99.90;;;;;;4957834;28;20503;-87
2021/12/17 13:37:00;;;;;;;16.47;15.37;;;9.70;99.90;;;;;;5002534;28;20448;-88
2021/12/17 13:39:37;;;;;;;17.77;16.50;;;9.50;99.90;;;;;;5004274;28;20440;-88
2021/12/17 13:42:05;;;;;;;17.27;16.00;;;9.50;99.90;;;;;;4993085;28;20444;-88
2021/12/17 13:44:36;;;;;;;17.03;15.83;;;9.50;99.90;;;;;;5003419;28;20454;-88
2021/12/17 13:47:23;;;;;;;16.27;15.07;;;9.50;99.90;;;;;;4990197;28;20458;-88
2021/12/17 13:49:53;;;;;;;16.87;15.77;;;9.60;99.90;;;;;;4989396;28;20478;-88
2021/12/17 13:52:23;;;;;;;16.67;15.47;;;9.60;99.90;;;;;;4986600;28;20447;-87
2021/12/17 13:54:52;;;;;;;15.40;14.40;;;9.60;99.90;;;;;;4991305;28;20478;-88
2021/12/17 13:57:24;;;;;;;15.80;14.70;;;9.50;99.90;;;;;;5006098;28;20447;-87
2021/12/17 13:59:51;;;;;;;17.00;15.73;;;9.50;99.90;;;;;;4991386;28;20551;-87
2021/12/17 14:02:20;;;;;;;17.17;16.00;;;9.40;99.90;;;;;;4991995;28;20432;-87
2021/12/17 14:05:01;;;;;;;16.83;15.73;;;9.40;99.90;;;;;;4994115;28;20456;-88
2021/12/17 14:07:33;;;;;;;17.80;16.50;;;9.50;99.90;;;;;;4995365;28;20458;-88
2021/12/17 14:10:09;;;;;;;19.17;17.70;;;9.50;99.90;;;;;;4992556;28;20515;-88
2021/12/17 14:12:39;;;;;;;18.60;17.40;;;9.40;99.90;;;;;;4988027;28;20449;-87
2021/12/17 14:15:11;;;;;;;20.30;18.80;;;9.40;99.90;;;;;;4991529;28;20494;-85
2021/12/17 14:17:43;;;;;;;18.57;17.17;;;9.40;99.90;;;;;;5247831;23;20478;-83
2021/12/17 14:20:17;;;;;;;19.77;18.10;;;9.40;99.90;;;;;;5014665;28;20451;-87
2021/12/17 14:22:46;;;;;;;19.20;17.87;;;9.50;99.90;;;;;;5013140;28;20491;-86
2021/12/17 14:25:39;;;;;;;18.80;17.30;;;9.60;99.90;;;;;;4994607;28;20435;-86
2021/12/17 14:28:13;;;;;;;18.33;17.03;;;9.60;99.90;;;;;;4989897;28;20480;-86
2021/12/17 14:30:41;;;;;;;21.17;19.47;;;9.50;99.90;;;;;;4993774;28;20448;-87
2021/12/17 14:33:12;;;;;;;17.80;16.57;;;9.40;99.90;;;;;;4999321;28;20519;-87
2021/12/17 14:35:48;;;;;;;18.50;17.20;;;9.40;99.90;;;;;;4996080;28;20435;-87
2021/12/17 14:38:17;;;;;;;18.47;17.23;;;9.20;99.90;;;;;;4997934;28;20511;-87
2021/12/17 14:40:53;;;;;;;19.23;17.87;;;9.10;99.90;;;;;;4987302;28;20444;-87
2021/12/17 14:43:27;;;;;;;19.77;18.03;;;9.20;99.90;;;;;;4984370;28;20455;-86
2021/12/17 14:46:01;;;;;;;18.90;17.30;;;9.00;99.90;;;;;;4982347;28;20479;-78
2021/12/17 14:48:37;;;;;;;19.30;18.00;;;8.90;99.90;;;;;;4976104;28;20488;-85
2021/12/17 15:02:28;;;;;;;20.47;18.97;;;8.60;99.90;;;;;;4975525;28;20434;-85
2021/12/17 15:04:55;;;;;;;20.33;18.90;;;8.60;99.90;;;;;;4983421;28;20444;-86
2021/12/17 15:07:23;;;;;;;21.87;20.27;;;8.60;99.90;;;;;;4982300;28;20455;-85
2021/12/17 15:09:50;;;;;;;20.13;18.53;;;8.60;99.90;;;;;;4983843;28;20526;-84
2021/12/17 15:12:38;;;;;;;20.80;19.30;;;8.60;99.90;;;;;;4984842;28;20451;-85
2021/12/17 15:15:08;;;;;;;22.20;20.50;;;8.40;99.90;;;;;;4956303;28;20492;-86
2021/12/17 15:17:34;;;;;;;23.27;21.50;;;8.30;99.90;;;;;;4968749;28;20457;-86